Time;durP1;ratioP1;P1;durP2;ratioP2;P2;SDS_P1;SDS_P2;PMS_P1;PMS_P2;Temp;Humidity;BMP_temperature;BMP_pressure;BME280_temperature;BME280_humidity;BME280_pressure;Samples;Min_cycle;Max_cycle;Signal;HPM_P1;HPM_P2
2023/01/23 04:59:31;;;;;;;7.60;4.30;;;;;;;8.75;75.77;101392.56;5606501;31;82652;-59
2023/01/23 05:02:34;;;;;;;7.30;4.37;;;;;;;8.75;75.77;101392.56;5584037;31;33478;-59
2023/01/23 05:05:37;;;;;;;8.43;4.85;;;;;;;8.39;87.89;101403.44;5568681;31;31836;-59
2023/01/23 05:08:39;;;;;;;6.87;4.40;;;;;;;8.30;83.33;101406.72;5564167;32;34371;-60
2023/01/23 05:11:42;;;;;;;7.82;4.90;;;;;;;8.40;77.39;101418.41;5564109;32;33207;-60
2023/01/23 05:14:45;;;;;;;6.28;4.35;;;;;;;8.35;80.31;101406.81;5562919;32;33370;-60
2023/01/23 05:17:48;;;;;;;6.97;4.82;;;;;;;8.66;88.15;101413.53;5563961;32;33394;-60
2023/01/23 05:20:51;;;;;;;7.18;4.57;;;;;;;8.80;90.12;101408.66;5564035;32;33535;-60
2023/01/23 05:23:54;;;;;;;5.72;3.78;;;;;;;8.48;77.49;101398.53;5563912;32;34374;-60
2023/01/23 05:26:56;;;;;;;7.22;4.82;;;;;;;8.41;75.77;101412.03;5563789;32;34410;-60
2023/01/23 05:29:59;;;;;;;6.05;4.28;;;;;;;8.58;91.39;101412.06;5564002;32;34187;-60
2023/01/23 05:33:04;;;;;;;7.28;4.68;;;;;;;8.58;78.12;101408.59;5563487;32;34543;-60
2023/01/23 05:36:07;;;;;;;7.45;4.60;;;;;;;9.03;91.67;101411.16;5564061;32;34329;-60
2023/01/23 05:39:10;;;;;;;7.10;4.20;;;;;;;9.00;88.50;101418.88;5563478;32;34390;-60
2023/01/23 05:42:13;;;;;;;6.25;4.70;;;;;;;8.76;77.34;101410.22;5563674;32;33909;-60
2023/01/23 05:45:17;;;;;;;6.97;4.78;;;;;;;8.82;82.83;101412.72;5563584;32;34494;-60
2023/01/23 05:48:19;;;;;;;7.60;4.45;;;;;;;8.76;76.16;101413.69;5563715;32;33286;-59
2023/01/23 05:51:26;;;;;;;7.80;4.55;;;;;;;8.54;80.00;101420.78;5563627;32;33718;-59
2023/01/23 05:54:28;;;;;;;7.85;4.93;;;;;;;8.89;87.05;101431.28;5563642;32;33704;-60
2023/01/23 05:57:31;;;;;;;7.95;4.85;;;;;;;8.82;90.53;101444.81;5563090;32;33616;-60
2023/01/23 06:00:37;;;;;;;7.18;4.68;;;;;;;8.85;75.88;101444.31;5563423;32;33228;-60
2023/01/23 06:03:41;;;;;;;7.85;5.60;;;;;;;8.53;89.34;101451.25;5563328;32;33609;-60
2023/01/23 06:06:47;;;;;;;6.62;4.80;;;;;;;8.92;94.48;101457.53;5561795;32;34493;-60
2023/01/23 06:09:50;;;;;;;7.37;4.43;;;;;;;8.89;89.92;101453.47;5554716;32;33275;-59
2023/01/23 06:12:52;;;;;;;7.00;4.07;;;;;;;8.74;77.34;101458.59;5550294;32;33614;-60
2023/01/23 06:15:55;;;;;;;5.45;3.53;;;;;;;9.11;89.71;101461.59;5550316;32;33625;-60
2023/01/23 06:18:59;;;;;;;8.40;5.20;;;;;;;8.86;75.56;101464.66;5559420;32;33690;-60
2023/01/23 06:22:02;;;;;;;8.75;4.93;;;;;;;9.06;97.49;101464.19;5569848;32;34588;-59
2023/01/23 06:25:06;;;;;;;9.05;4.32;;;;;;;9.16;88.50;101474.22;5569717;31;34302;-59
2023/01/23 06:28:09;;;;;;;6.85;4.15;;;;;;;9.20;80.82;101470.00;5568167;32;34332;-60
2023/01/23 06:31:12;;;;;;;11.52;4.43;;;;;;;8.87;74.40;101474.31;5562800;32;33899;-60
2023/01/23 06:34:17;;;;;;;6.70;4.10;;;;;;;9.10;82.52;101476.00;5568856;32;33276;-59
2023/01/23 06:37:25;;;;;;;7.18;4.43;;;;;;;9.02;76.20;101483.66;5569211;31;33119;-59
2023/01/23 06:40:27;;;;;;;6.55;4.62;;;;;;;8.87;78.08;101481.50;5569004;31;34429;-60
2023/01/23 06:43:31;;;;;;;6.60;4.12;;;;;;;9.14;93.58;101476.34;5569139;32;33171;-59
2023/01/23 06:46:34;;;;;;;6.60;4.10;;;;;;;9.03;72.64;101486.06;5568795;31;30926;-59
2023/01/23 06:49:36;;;;;;;6.10;3.92;;;;;;;9.09;79.22;101490.44;5568613;32;34432;-60
2023/01/23 06:52:39;;;;;;;7.03;4.25;;;;;;;9.21;78.29;101493.06;5568662;31;33522;-59
2023/01/23 06:55:42;;;;;;;5.93;4.05;;;;;;;9.00;75.19;101502.59;5567031;32;34112;-59
2023/01/23 06:58:45;;;;;;;5.43;3.67;;;;;;;8.81;79.14;101501.22;5567980;32;34356;-59
2023/01/23 07:01:50;;;;;;;10.53;5.00;;;;;;;9.01;74.02;101501.56;5567595;31;33389;-59
2023/01/23 07:04:53;;;;;;;7.45;4.22;;;;;;;9.11;97.82;101503.59;5561547;32;31715;-59
2023/01/23 07:07:56;;;;;;;6.57;4.32;;;;;;;9.04;74.80;101508.25;5568852;32;34384;-59
2023/01/23 07:10:59;;;;;;;6.78;4.75;;;;;;;9.07;92.30;101518.47;5568212;32;33682;-60
2023/01/23 07:14:02;;;;;;;6.78;4.40;;;;;;;8.96;73.26;101520.19;5567119;31;32589;-60
2023/01/23 07:17:05;;;;;;;6.18;4.18;;;;;;;9.00;77.85;101531.19;5568091;31;34431;-59
2023/01/23 07:20:08;;;;;;;7.07;4.65;;;;;;;9.29;89.67;101526.59;5567922;31;34078;-59
2023/01/23 07:23:13;;;;;;;7.20;4.00;;;;;;;9.05;78.38;101534.78;5552938;31;33957;-60
2023/01/23 07:26:15;;;;;;;6.78;4.68;;;;;;;9.11;77.33;101541.03;5549659;32;34425;-59
2023/01/23 07:29:18;;;;;;;7.95;4.62;;;;;;;9.06;74.25;101530.25;5549091;32;34319;-59
2023/01/23 07:32:20;;;;;;;9.82;4.40;;;;;;;8.99;74.28;101538.41;5548749;32;34245;-59
2023/01/23 07:35:22;;;;;;;7.35;4.78;;;;;;;9.00;74.04;101533.88;5548979;32;33361;-60
2023/01/23 07:38:25;;;;;;;8.73;4.68;;;;;;;9.01;74.56;101538.19;5547455;32;33729;-59
2023/01/23 07:41:27;;;;;;;7.47;4.32;;;;;;;8.89;73.54;101541.72;5565720;32;34332;-59
2023/01/23 07:44:30;;;;;;;8.75;5.18;;;;;;;9.01;77.11;101533.66;5566786;32;33716;-61
2023/01/23 07:47:33;;;;;;;6.07;4.82;;;;;;;9.26;87.86;101540.47;5564615;32;33433;-60
2023/01/23 07:50:36;;;;;;;9.90;4.43;;;;;;;9.27;91.26;101537.56;5568021;32;33495;-59
2023/01/23 07:53:39;;;;;;;6.95;4.45;;;;;;;9.31;74.85;101537.91;5548697;32;33845;-60
2023/01/23 07:56:41;;;;;;;6.72;4.70;;;;;;;9.28;75.68;101544.53;5548876;32;34252;-59
2023/01/23 07:59:46;;;;;;;7.80;4.87;;;;;;;9.18;77.04;101547.03;5548242;32;33556;-59
2023/01/23 08:02:48;;;;;;;7.37;4.95;;;;;;;9.35;85.26;101547.06;5549139;32;33754;-59
2023/01/23 08:05:51;;;;;;;9.15;5.53;;;;;;;9.16;76.93;101543.78;5548668;32;33712;-60
2023/01/23 08:08:53;;;;;;;7.35;5.03;;;;;;;9.62;92.79;101542.66;5548710;32;34289;-60
2023/01/23 08:11:55;;;;;;;7.00;4.72;;;;;;;9.56;85.56;101543.62;5548836;32;33153;-59
2023/01/23 08:14:57;;;;;;;6.65;4.82;;;;;;;9.34;73.09;101545.44;5547442;32;33664;-60
2023/01/23 08:18:00;;;;;;;8.10;5.18;;;;;;;9.22;76.08;101540.16;5555301;32;33734;-59
2023/01/23 08:21:03;;;;;;;7.80;5.25;;;;;;;9.51;92.10;101545.44;5567027;32;34352;-59
2023/01/23 08:24:06;;;;;;;7.22;5.00;;;;;;;9.57;78.86;101544.44;5568069;32;33691;-60
2023/01/23 08:27:08;;;;;;;8.40;5.37;;;;;;;9.95;89.97;101550.88;5568335;32;34421;-59
2023/01/23 08:30:11;;;;;;;6.97;5.20;;;;;;;9.88;78.95;101562.56;5568219;32;33548;-60
2023/01/23 08:33:13;;;;;;;7.78;5.32;;;;;;;9.77;83.34;101551.97;5567659;32;33877;-60
2023/01/23 08:36:16;;;;;;;9.48;5.05;;;;;;;9.84;88.12;101548.06;5568036;32;33400;-59
2023/01/23 08:39:19;;;;;;;8.68;5.28;;;;;;;10.10;87.99;101551.09;5554002;32;34264;-60
2023/01/23 08:42:21;;;;;;;8.88;5.20;;;;;;;10.13;92.42;101550.56;5557920;32;33662;-60
2023/01/23 08:45:24;;;;;;;8.70;5.75;;;;;;;10.25;88.21;101556.63;5557669;32;34339;-59
2023/01/23 08:48:27;;;;;;;8.13;5.03;;;;;;;10.27;84.30;101562.59;5556631;32;34369;-60
2023/01/23 08:51:30;;;;;;;10.40;6.28;;;;;;;10.31;80.67;101555.66;5550144;32;34523;-60
2023/01/23 08:54:32;;;;;;;9.77;6.43;;;;;;;10.10;85.07;101564.50;5558602;32;34280;-59
2023/01/23 08:57:34;;;;;;;8.98;5.68;;;;;;;10.28;86.80;101558.03;5563653;32;33685;-60
2023/01/23 09:00:37;;;;;;;9.68;6.32;;;;;;;10.22;87.77;101567.03;5549314;32;33306;-59
2023/01/23 09:03:39;;;;;;;9.88;6.32;;;;;;;10.14;84.94;101554.91;5566753;32;34583;-59
2023/01/23 09:06:42;;;;;;;9.55;6.65;;;;;;;10.12;89.04;101565.03;5566229;32;33563;-60
2023/01/23 09:09:45;;;;;;;8.02;6.43;;;;;;;10.27;85.49;101565.28;5567559;32;34299;-60
2023/01/23 09:12:50;;;;;;;11.32;6.47;;;;;;;10.16;81.21;101563.47;5567370;32;34373;-60
2023/01/23 09:15:52;;;;;;;8.27;6.00;;;;;;;10.10;81.42;101562.63;5567383;32;33612;-59
2023/01/23 09:18:55;;;;;;;11.60;6.68;;;;;;;10.31;82.14;101561.03;5567060;32;33678;-60
2023/01/23 09:21:57;;;;;;;11.57;6.47;;;;;;;10.25;73.89;101563.88;5567264;32;34059;-59
2023/01/23 09:25:00;;;;;;;11.02;7.10;;;;;;;10.14;72.86;101568.28;5566741;32;33638;-60
2023/01/23 09:28:02;;;;;;;10.80;7.07;;;;;;;10.19;72.97;101562.97;5567134;32;34315;-60
2023/01/23 09:31:06;;;;;;;15.77;7.40;;;;;;;10.19;82.65;101557.62;5566159;32;33568;-60
2023/01/23 09:34:10;;;;;;;10.23;6.75;;;;;;;10.08;80.34;101555.87;5565964;32;33715;-59
2023/01/23 09:37:12;;;;;;;12.37;6.75;;;;;;;10.40;84.12;101558.75;5563007;32;33344;-60
2023/01/23 09:40:17;;;;;;;11.40;7.30;;;;;;;10.59;84.45;101551.16;5557694;32;33516;-60
2023/01/23 09:43:29;;;;;;;11.40;7.20;;;;;;;10.53;81.95;101550.31;5555966;32;33529;-60
2023/01/23 09:46:41;;;;;;;13.02;7.32;;;;;;;10.68;83.82;101555.03;5561861;32;34441;-60
2023/01/23 09:49:57;;;;;;;10.68;6.87;;;;;;;10.48;73.01;101557.47;5564209;32;34154;-60
2023/01/23 09:53:14;;;;;;;12.15;7.37;;;;;;;10.50;83.97;101560.72;5568545;32;33744;-59
2023/01/23 09:56:26;;;;;;;;;;;;;;;10.69;74.88;101559.31;5569421;32;33684;-59
2023/01/23 09:59:36;;;;;;;11.10;7.40;;;;;;;11.14;85.99;101562.72;5567916;32;33873;-60
2023/01/23 10:02:56;;;;;;;14.27;7.90;;;;;;;11.05;85.19;101557.00;5568332;32;34328;-59
2023/01/23 10:06:04;;;;;;;10.93;6.75;;;;;;;10.94;77.06;101550.72;5568635;31;33740;-59
2023/01/23 10:09:26;;;;;;;14.15;6.72;;;;;;;10.89;77.09;101556.03;5568657;32;34750;-60
2023/01/23 10:12:34;;;;;;;10.80;7.68;;;;;;;10.79;72.68;101556.75;5567875;32;34318;-60
2023/01/23 10:15:37;;;;;;;10.50;7.10;;;;;;;11.16;73.70;101561.41;5562256;32;34376;-60
2023/01/23 10:19:01;;;;;;;11.00;7.05;;;;;;;11.23;73.16;101559.31;5569149;32;33767;-60
2023/01/23 10:22:28;;;;;;;13.93;7.47;;;;;;;11.09;71.52;101555.41;5567907;32;33625;-60
2023/01/23 10:25:36;;;;;;;12.15;7.03;;;;;;;11.19;73.85;101557.38;5568605;32;34011;-60
2023/01/23 10:28:41;;;;;;;9.80;6.35;;;;;;;11.09;72.72;101552.72;5569274;32;33471;-59
2023/01/23 10:32:05;;;;;;;10.25;7.22;;;;;;;11.08;78.38;101548.44;5568472;32;33722;-59
2023/01/23 10:35:16;;;;;;;14.48;7.47;;;;;;;11.37;72.67;101551.63;5568267;32;33688;-59
2023/01/23 10:38:33;;;;;;;15.57;7.32;;;;;;;11.24;70.04;101546.69;5568150;32;33753;-60
2023/01/23 10:41:36;;;;;;;9.43;7.68;;;;;;;11.09;69.11;101550.03;5565270;32;33642;-59
2023/01/23 10:44:38;;;;;;;10.00;7.12;;;;;;;11.27;73.02;101547.00;5568621;32;33729;-60
2023/01/23 10:47:43;;;;;;;14.07;7.70;;;;;;;11.35;77.70;101550.28;5568681;32;33997;-60
2023/01/23 10:50:50;;;;;;;11.85;6.72;;;;;;;11.48;72.29;101539.91;5567871;32;33593;-60
2023/01/23 10:54:23;;;;;;;10.68;6.80;;;;;;;11.50;78.90;101537.78;5567486;32;33841;-60
2023/01/23 10:57:44;;;;;;;13.18;5.47;;;;;;;11.61;70.85;101527.09;5566332;32;33236;-59
2023/01/23 11:00:47;;;;;;;7.87;4.90;;;;;;;11.73;69.09;101523.16;5566371;32;33724;-60
2023/01/23 11:03:49;;;;;;;7.65;4.82;;;;;;;11.69;69.52;101522.06;5559182;32;33392;-59
2023/01/23 11:07:13;;;;;;;7.75;4.72;;;;;;;11.67;68.30;101520.69;5557424;32;34383;-59
2023/01/23 11:10:21;;;;;;;6.70;4.80;;;;;;;11.70;71.67;101515.63;5565474;32;34448;-59
2023/01/23 11:13:30;;;;;;;6.75;4.87;;;;;;;11.82;71.64;101519.97;5568190;32;34366;-60
2023/01/23 11:16:33;;;;;;;8.63;4.70;;;;;;;11.88;76.09;101511.69;5566888;32;33300;-59
2023/01/23 11:19:35;;;;;;;7.40;4.82;;;;;;;11.98;67.85;101517.12;5565219;32;33327;-59
2023/01/23 11:22:42;;;;;;;6.72;4.37;;;;;;;11.99;73.57;101523.34;5568636;32;33620;-59
2023/01/23 11:25:50;;;;;;;7.05;4.60;;;;;;;12.03;70.79;101515.56;5565908;32;32480;-59
2023/01/23 11:28:53;;;;;;;6.35;4.82;;;;;;;11.94;69.33;101515.22;5567466;32;33483;-60
2023/01/23 11:32:11;;;;;;;8.93;4.72;;;;;;;12.07;73.85;101512.06;5567156;32;33703;-60
2023/01/23 11:35:18;;;;;;;6.90;4.55;;;;;;;12.05;68.10;101514.19;5567561;32;34418;-60
2023/01/23 11:38:25;;;;;;;6.80;4.60;;;;;;;11.89;67.47;101493.72;5563260;32;33725;-59
2023/01/23 11:41:34;;;;;;;7.53;4.32;;;;;;;12.00;72.64;101487.31;5563824;32;33657;-60
2023/01/23 11:44:38;;;;;;;6.87;4.20;;;;;;;12.11;71.75;101494.34;5567365;32;33723;-60
2023/01/23 11:48:25;;;;;;;7.05;4.57;;;;;;;12.13;68.47;101488.72;5564805;32;33688;-59
2023/01/23 11:51:32;;;;;;;6.22;4.75;;;;;;;12.03;68.07;101486.78;5559335;32;33765;-60
2023/01/23 11:55:28;;;;;;;6.70;4.50;;;;;;;11.97;67.40;101480.59;5565778;32;34435;-60
2023/01/23 11:58:52;;;;;;;7.28;4.90;;;;;;;12.03;67.02;101491.37;5512065;31;33693;-59
2023/01/23 12:02:28;;;;;;;7.18;5.12;;;;;;;12.08;70.65;101489.50;5568382;32;33769;-59
2023/01/23 12:05:40;;;;;;;10.70;4.93;;;;;;;12.14;67.54;101493.81;5568044;32;33706;-59
2023/01/23 12:08:48;;;;;;;7.20;4.30;;;;;;;12.08;69.15;101496.75;5565242;32;33684;-59
2023/01/23 12:12:03;;;;;;;7.40;4.57;;;;;;;12.23;74.64;101494.94;5566032;32;33686;-60
2023/01/23 12:15:13;;;;;;;7.62;4.65;;;;;;;12.12;72.08;101493.28;5566684;32;33680;-60
2023/01/23 12:18:26;;;;;;;6.75;4.72;;;;;;;12.14;66.10;101496.50;5560862;32;33718;-59
2023/01/23 12:21:59;;;;;;;7.57;4.65;;;;;;;12.09;69.42;101487.63;5561221;32;33709;-59
2023/01/23 12:25:08;;;;;;;7.53;4.53;;;;;;;12.17;78.95;101481.72;5556945;32;33817;-59
2023/01/23 12:28:20;;;;;;;7.65;4.32;;;;;;;12.03;65.69;101475.25;5567530;32;33830;-59
2023/01/23 12:31:28;;;;;;;7.82;4.43;;;;;;;11.95;64.20;101487.28;5566897;32;33722;-59
2023/01/23 12:35:00;;;;;;;6.15;4.37;;;;;;;12.06;73.34;101488.16;5568438;32;33814;-59
2023/01/23 12:38:21;;;;;;;8.82;4.80;;;;;;;12.04;65.17;101483.03;5566583;32;33656;-59
2023/01/23 12:41:27;;;;;;;8.80;4.30;;;;;;;12.27;74.71;101492.53;5563237;32;33813;-61
2023/01/23 12:44:37;;;;;;;7.53;4.70;;;;;;;12.13;68.36;101489.53;5568552;32;33709;-60
2023/01/23 12:47:54;;;;;;;8.68;4.72;;;;;;;12.07;69.49;101487.87;5560905;32;33788;-61
2023/01/23 12:51:04;;;;;;;7.35;4.35;;;;;;;12.12;65.28;101485.22;5567931;32;33849;-60
2023/01/23 12:54:20;;;;;;;9.80;4.80;;;;;;;12.26;69.63;101480.16;5563285;32;34254;-61
2023/01/23 13:01:14;;;;;;;6.82;4.50;;;;;;;12.44;67.66;101493.09;5563082;32;33808;-60
2023/01/23 13:04:48;;;;;;;8.77;5.03;;;;;;;12.42;69.13;101491.78;5560002;31;33646;-61
2023/01/23 13:07:50;;;;;;;7.80;4.30;;;;;;;12.41;66.92;101485.56;5557402;32;34522;-61
2023/01/23 13:14:24;;;;;;;7.45;4.18;;;;;;;12.23;63.78;101496.81;5564542;32;33763;-61
2023/01/23 13:17:39;;;;;;;6.90;4.70;;;;;;;12.33;63.81;101496.84;5557634;32;33691;-61
2023/01/23 13:28:29;;;;;;;10.15;5.90;;;;;;;12.27;64.66;101500.59;5570144;32;33710;-60
2023/01/23 13:31:49;;;;;;;8.18;4.90;;;;;;;12.32;69.75;101497.13;5566981;32;33538;-61
2023/01/23 13:34:51;;;;;;;8.80;4.30;;;;;;;12.16;68.53;101502.44;5569011;32;33661;-61
2023/01/23 13:37:54;;;;;;;7.45;4.87;;;;;;;12.27;68.21;101502.47;5565515;32;33797;-61
2023/01/23 13:41:13;;;;;;;7.85;4.65;;;;;;;12.41;71.03;101509.75;5568858;32;34432;-60
2023/01/23 13:44:22;;;;;;;7.00;4.78;;;;;;;12.38;67.36;101506.81;5569177;32;33748;-60
2023/01/23 13:51:19;;;;;;;7.40;4.90;;;;;;;12.41;73.39;101517.84;5507427;32;34214;-60
2023/01/23 13:58:15;;;;;;;6.72;4.53;;;;;;;12.41;70.36;101520.53;5359312;33;34461;-61
2023/01/23 14:05:23;;;;;;;7.18;4.82;;;;;;;12.41;78.57;101531.28;5287444;33;33733;-61
2023/01/23 14:08:48;;;;;;;9.25;4.87;;;;;;;12.40;72.29;101526.19;5202074;34;33802;-60
2023/01/23 14:12:05;;;;;;;7.55;4.50;;;;;;;12.34;65.56;101532.59;5167625;34;33690;-61
2023/01/23 14:19:03;;;;;;;6.00;4.32;;;;;;;12.40;72.49;101535.03;5224134;33;33649;-60
2023/01/23 14:22:21;;;;;;;8.52;4.22;;;;;;;12.44;73.77;101535.31;5261543;33;34445;-60
2023/01/23 14:25:24;;;;;;;8.15;4.82;;;;;;;12.29;74.21;101525.34;5295510;33;33598;-61
2023/01/23 14:28:27;;;;;;;6.82;5.05;;;;;;;12.31;70.13;101533.94;5314956;33;33679;-60
2023/01/23 14:31:32;;;;;;;6.68;4.50;;;;;;;12.16;65.17;101523.94;5358389;33;34136;-61
2023/01/23 14:34:38;;;;;;;7.00;4.82;;;;;;;12.19;70.93;101523.41;5359433;33;33639;-61
2023/01/23 14:37:41;;;;;;;8.43;4.72;;;;;;;12.20;68.77;101527.72;5393211;32;33658;-60
2023/01/23 14:40:44;;;;;;;9.40;4.87;;;;;;;12.27;68.28;101526.66;5550801;32;33488;-61
2023/01/23 14:43:55;;;;;;;7.60;4.78;;;;;;;12.17;70.51;101535.50;5569312;32;34411;-60
2023/01/23 14:46:59;;;;;;;6.62;4.40;;;;;;;12.23;70.77;101529.88;5568829;32;34753;-61
2023/01/23 14:50:07;;;;;;;7.78;4.37;;;;;;;12.21;66.34;101525.84;5569074;32;33983;-60
2023/01/23 14:53:14;;;;;;;10.55;5.22;;;;;;;12.25;65.95;101535.00;5569228;32;34294;-60
2023/01/23 14:56:17;;;;;;;8.02;5.03;;;;;;;12.24;65.36;101533.38;5568582;32;33635;-61
2023/01/23 14:59:33;;;;;;;8.13;5.32;;;;;;;12.02;64.96;101544.31;5568072;32;33753;-60
2023/01/23 15:02:35;;;;;;;7.30;4.18;;;;;;;11.89;64.50;101537.53;5567602;32;33660;-61
2023/01/23 15:05:39;;;;;;;9.48;5.18;;;;;;;11.99;78.76;101545.63;5568873;32;34245;-61
2023/01/23 15:08:42;;;;;;;7.65;4.80;;;;;;;12.04;70.75;101534.09;5568935;32;34392;-60
2023/01/23 15:11:44;;;;;;;8.70;4.87;;;;;;;12.07;68.24;101538.94;5569056;32;34010;-61
2023/01/23 15:14:53;;;;;;;13.13;5.93;;;;;;;12.11;75.50;101545.41;5569202;32;33696;-60
2023/01/23 15:17:56;;;;;;;8.38;4.97;;;;;;;12.16;76.19;101553.50;5568322;32;33865;-61
2023/01/23 15:21:07;;;;;;;9.50;4.75;;;;;;;12.16;66.50;101552.72;5568844;32;34407;-61
2023/01/23 15:24:12;;;;;;;8.00;5.07;;;;;;;12.07;66.32;101549.69;5569321;32;33941;-60
2023/01/23 15:27:33;;;;;;;11.43;4.97;;;;;;;12.21;70.18;101542.75;5568048;32;33213;-61
2023/01/23 15:30:36;;;;;;;13.73;5.30;;;;;;;12.21;72.51;101556.22;5565616;32;34268;-60
2023/01/23 15:33:40;;;;;;;9.50;5.35;;;;;;;12.04;67.43;101549.41;5567972;32;34321;-60
2023/01/23 15:36:54;;;;;;;7.78;4.45;;;;;;;12.01;65.50;101555.31;5567585;32;33666;-60
2023/01/23 15:40:01;;;;;;;9.48;5.22;;;;;;;12.15;67.99;101557.28;5558870;32;34390;-60
2023/01/23 15:43:17;;;;;;;10.00;5.37;;;;;;;12.19;68.53;101566.44;5567173;32;33799;-61
2023/01/23 15:46:19;;;;;;;8.68;4.82;;;;;;;12.16;70.36;101575.00;5566767;32;33882;-60
2023/01/23 15:49:22;;;;;;;10.85;5.50;;;;;;;12.06;67.34;101569.59;5568038;32;34362;-61
2023/01/23 15:52:48;;;;;;;9.82;5.47;;;;;;;12.02;65.33;101576.56;5569051;32;33729;-61
2023/01/23 15:55:50;;;;;;;12.68;5.82;;;;;;;11.92;65.40;101580.00;5568780;32;33784;-61
2023/01/23 15:58:53;;;;;;;10.13;5.28;;;;;;;11.86;65.76;101578.34;5568081;32;34319;-60
2023/01/23 16:01:55;;;;;;;8.85;5.28;;;;;;;11.86;66.43;101585.59;5568198;32;34402;-61
2023/01/23 16:04:59;;;;;;;8.52;5.32;;;;;;;12.09;79.66;101587.88;5565809;32;33948;-60
2023/01/23 16:08:03;;;;;;;8.90;5.37;;;;;;;11.95;64.84;101576.78;5568181;32;34359;-60
2023/01/23 16:11:05;;;;;;;9.95;6.03;;;;;;;11.81;67.34;101570.22;5566892;32;34191;-61
2023/01/23 16:14:15;;;;;;;13.88;6.10;;;;;;;11.74;66.89;101573.13;5568102;32;33717;-61
2023/01/23 16:17:17;;;;;;;8.35;5.20;;;;;;;11.92;70.11;101574.62;5551618;32;34334;-61
2023/01/23 16:20:33;;;;;;;10.23;5.55;;;;;;;11.81;69.56;101572.91;5568369;32;31655;-61
2023/01/23 16:23:35;;;;;;;7.65;5.35;;;;;;;11.83;67.38;101583.41;5567017;32;33766;-60
2023/01/23 16:26:50;;;;;;;9.48;5.82;;;;;;;11.75;70.08;101584.66;5568193;32;33849;-61
2023/01/23 16:29:54;;;;;;;9.32;5.35;;;;;;;11.76;72.09;101584.44;5568320;32;33666;-58
2023/01/23 16:32:56;;;;;;;8.35;5.57;;;;;;;11.72;66.10;101583.34;5567953;32;33864;-58
2023/01/23 16:35:59;;;;;;;9.13;5.90;;;;;;;11.86;77.00;101596.34;5568368;32;33996;-58
2023/01/23 16:39:01;;;;;;;9.35;5.28;;;;;;;11.83;69.52;101594.94;5568189;32;34509;-58
2023/01/23 16:42:04;;;;;;;10.07;5.62;;;;;;;11.77;71.01;101599.47;5568151;32;33660;-58
2023/01/23 16:45:32;;;;;;;10.75;5.72;;;;;;;11.76;79.44;101602.44;5567438;32;33694;-59
2023/01/23 16:48:34;;;;;;;10.98;6.20;;;;;;;11.95;78.37;101600.97;5563377;32;33736;-58
2023/01/23 16:51:39;;;;;;;12.40;5.97;;;;;;;11.97;75.45;101608.78;5567431;32;33680;-58
2023/01/23 16:54:42;;;;;;;10.65;6.00;;;;;;;11.85;77.16;101611.62;5568270;32;34428;-61
2023/01/23 16:57:44;;;;;;;10.43;5.90;;;;;;;12.03;77.81;101615.00;5568201;32;34391;-61
2023/01/23 17:00:48;;;;;;;15.15;6.72;;;;;;;11.95;68.02;101619.78;5568123;32;34405;-61
2023/01/23 17:03:57;;;;;;;13.27;6.70;;;;;;;11.86;66.46;101629.41;5567788;32;33682;-61
2023/01/23 17:06:59;;;;;;;8.70;6.20;;;;;;;11.71;65.58;101630.03;5568383;32;34450;-61
2023/01/23 17:10:01;;;;;;;12.82;6.25;;;;;;;11.56;66.76;101629.13;5568249;32;33776;-61
2023/01/23 17:13:04;;;;;;;13.73;6.32;;;;;;;11.56;70.72;101635.31;5568354;32;33651;-61
2023/01/23 17:16:06;;;;;;;13.90;5.90;;;;;;;11.53;66.69;101625.88;5567644;32;33691;-60
